sensor_id;sensor_type;location;lat;lon;timestamp;pressure;altitude;pressure_sealevel;temperature;humidity
80712;BME280;70078;51.596;5.678;2023-12-04T00:02:17;101214.34;;;0.33;94.72
80712;BME280;70078;51.596;5.678;2023-12-04T00:04:42;101199.72;;;0.29;95.45
80712;BME280;70078;51.596;5.678;2023-12-04T00:07:07;101206.09;;;0.25;95.29
80712;BME280;70078;51.596;5.678;2023-12-04T00:09:33;101209.94;;;0.34;95.22
80712;BME280;70078;51.596;5.678;2023-12-04T00:11:58;101214.34;;;0.33;95.48
80712;BME280;70078;51.596;5.678;2023-12-04T00:14:23;101199.16;;;0.24;96.11
80712;BME280;70078;51.596;5.678;2023-12-04T00:16:48;101217.38;;;0.41;96.30
80712;BME280;70078;51.596;5.678;2023-12-04T00:19:14;101203.19;;;0.15;94.91
80712;BME280;70078;51.596;5.678;2023-12-04T00:21:39;101177.78;;;0.16;94.63
80712;BME280;70078;51.596;5.678;2023-12-04T00:24:04;101207.06;;;0.38;95.22
80712;BME280;70078;51.596;5.678;2023-12-04T00:26:30;101194.84;;;0.37;95.04
80712;BME280;70078;51.596;5.678;2023-12-04T00:28:55;101213.59;;;0.45;95.19
80712;BME280;70078;51.596;5.678;2023-12-04T00:31:20;101193.00;;;0.39;95.57
80712;BME280;70078;51.596;5.678;2023-12-04T00:33:46;101182.16;;;0.30;95.58
80712;BME280;70078;51.596;5.678;2023-12-04T00:36:13;101196.81;;;0.34;95.93
80712;BME280;70078;51.596;5.678;2023-12-04T00:38:38;101186.91;;;0.39;96.30
80712;BME280;70078;51.596;5.678;2023-12-04T00:41:03;101198.88;;;0.43;96.02
80712;BME280;70078;51.596;5.678;2023-12-04T00:43:29;101203.09;;;0.45;96.22
80712;BME280;70078;51.596;5.678;2023-12-04T00:45:54;101176.66;;;0.34;96.13
80712;BME280;70078;51.596;5.678;2023-12-04T00:48:19;101194.84;;;0.51;96.14
80712;BME280;70078;51.596;5.678;2023-12-04T00:50:45;101195.44;;;0.57;94.44
80712;BME280;70078;51.596;5.678;2023-12-04T00:53:10;101171.59;;;0.45;94.89
80712;BME280;70078;51.596;5.678;2023-12-04T00:55:36;101186.91;;;0.53;94.94
80712;BME280;70078;51.596;5.678;2023-12-04T00:58:01;101179.19;;;0.50;95.15
80712;BME280;70078;51.596;5.678;2023-12-04T01:00:26;101184.19;;;0.69;94.22
80712;BME280;70078;51.596;5.678;2023-12-04T01:02:52;101158.84;;;0.53;94.83
80712;BME280;70078;51.596;5.678;2023-12-04T01:05:17;101165.03;;;0.52;94.71
80712;BME280;70078;51.596;5.678;2023-12-04T01:07:43;101143.84;;;0.55;94.72
80712;BME280;70078;51.596;5.678;2023-12-04T01:10:08;101163.44;;;0.50;94.23
80712;BME280;70078;51.596;5.678;2023-12-04T01:12:34;101170.56;;;0.62;94.00
80712;BME280;70078;51.596;5.678;2023-12-04T01:15:00;101160.53;;;0.54;94.60
80712;BME280;70078;51.596;5.678;2023-12-04T01:17:26;101154.63;;;0.51;94.72
80712;BME280;70078;51.596;5.678;2023-12-04T01:19:52;101141.31;;;0.40;95.34
80712;BME280;70078;51.596;5.678;2023-12-04T01:22:17;101153.88;;;0.49;95.19
80712;BME280;70078;51.596;5.678;2023-12-04T01:24:42;101125.81;;;0.49;94.73
80712;BME280;70078;51.596;5.678;2023-12-04T01:27:08;101136.31;;;0.49;94.43
80712;BME280;70078;51.596;5.678;2023-12-04T01:29:33;101131.91;;;0.50;94.93
80712;BME280;70078;51.596;5.678;2023-12-04T01:31:58;101113.28;;;0.40;94.11
80712;BME280;70078;51.596;5.678;2023-12-04T01:34:24;101110.16;;;0.48;94.97
80712;BME280;70078;51.596;5.678;2023-12-04T01:36:49;101144.31;;;0.62;94.95
80712;BME280;70078;51.596;5.678;2023-12-04T01:39:14;101135.59;;;0.62;94.20
80712;BME280;70078;51.596;5.678;2023-12-04T01:41:40;101132.38;;;0.57;94.20
80712;BME280;70078;51.596;5.678;2023-12-04T01:44:05;101122.25;;;0.50;94.12
80712;BME280;70078;51.596;5.678;2023-12-04T01:46:31;101117.84;;;0.51;94.08
80712;BME280;70078;51.596;5.678;2023-12-04T01:48:56;101138.22;;;0.62;94.22
80712;BME280;70078;51.596;5.678;2023-12-04T01:51:22;101139.88;;;0.63;94.33
80712;BME280;70078;51.596;5.678;2023-12-04T01:53:48;101123.88;;;0.53;93.94
80712;BME280;70078;51.596;5.678;2023-12-04T01:56:15;101092.25;;;0.40;93.73
80712;BME280;70078;51.596;5.678;2023-12-04T01:58:41;101140.84;;;0.62;94.11
80712;BME280;70078;51.596;5.678;2023-12-04T02:01:07;101131.06;;;0.64;95.05
80712;BME280;70078;51.596;5.678;2023-12-04T02:03:32;101129.19;;;0.66;94.45
80712;BME280;70078;51.596;5.678;2023-12-04T02:05:59;101109.47;;;0.59;94.31
80712;BME280;70078;51.596;5.678;2023-12-04T02:08:26;101086.69;;;0.45;94.50
80712;BME280;70078;51.596;5.678;2023-12-04T02:10:51;101117.72;;;0.67;94.87
80712;BME280;70078;51.596;5.678;2023-12-04T02:13:17;101098.97;;;0.59;93.92
80712;BME280;70078;51.596;5.678;2023-12-04T02:15:42;101111.16;;;0.60;93.12
80712;BME280;70078;51.596;5.678;2023-12-04T02:18:08;101090.47;;;0.55;93.51
80712;BME280;70078;51.596;5.678;2023-12-04T02:20:34;101096.66;;;0.54;94.15
80712;BME280;70078;51.596;5.678;2023-12-04T02:23:02;101104.22;;;0.59;94.48
80712;BME280;70078;51.596;5.678;2023-12-04T02:25:29;101092.25;;;0.54;93.84
80712;BME280;70078;51.596;5.678;2023-12-04T02:27:56;101084.00;;;0.46;94.22
80712;BME280;70078;51.596;5.678;2023-12-04T02:30:24;101088.94;;;0.65;94.73
80712;BME280;70078;51.596;5.678;2023-12-04T02:32:50;101074.13;;;0.50;93.92
80712;BME280;70078;51.596;5.678;2023-12-04T02:35:20;101062.41;;;0.55;93.72
80712;BME280;70078;51.596;5.678;2023-12-04T02:37:46;101059.03;;;0.53;93.64
80712;BME280;70078;51.596;5.678;2023-12-04T02:40:12;101067.63;;;0.70;92.83
80712;BME280;70078;51.596;5.678;2023-12-04T02:42:38;101063.50;;;0.66;92.95
80712;BME280;70078;51.596;5.678;2023-12-04T02:45:04;101029.78;;;0.45;93.54
80712;BME280;70078;51.596;5.678;2023-12-04T02:47:29;101039.16;;;0.49;92.87
80712;BME280;70078;51.596;5.678;2023-12-04T02:49:54;101031.47;;;0.46;92.55
80712;BME280;70078;51.596;5.678;2023-12-04T02:52:20;101044.75;;;0.58;92.95
80712;BME280;70078;51.596;5.678;2023-12-04T02:54:45;101030.66;;;0.46;92.04
80712;BME280;70078;51.596;5.678;2023-12-04T02:57:10;101063.22;;;0.70;91.95
80712;BME280;70078;51.596;5.678;2023-12-04T02:59:36;101055.00;;;0.62;92.13
80712;BME280;70078;51.596;5.678;2023-12-04T03:02:01;101041.69;;;0.51;92.07
80712;BME280;70078;51.596;5.678;2023-12-04T03:04:28;101049.38;;;0.54;92.54
80712;BME280;70078;51.596;5.678;2023-12-04T03:06:54;101035.41;;;0.53;92.39
80712;BME280;70078;51.596;5.678;2023-12-04T03:09:19;101031.19;;;0.51;92.36
80712;BME280;70078;51.596;5.678;2023-12-04T03:11:45;101007.50;;;0.38;91.97
80712;BME280;70078;51.596;5.678;2023-12-04T03:14:10;101028.06;;;0.59;91.54
80712;BME280;70078;51.596;5.678;2023-12-04T03:16:35;101028.44;;;0.52;92.51
80712;BME280;70078;51.596;5.678;2023-12-04T03:19:01;101013.16;;;0.45;91.74
80712;BME280;70078;51.596;5.678;2023-12-04T03:21:26;101008.34;;;0.39;91.49
80712;BME280;70078;51.596;5.678;2023-12-04T03:23:53;101007.28;;;0.41;91.80
80712;BME280;70078;51.596;5.678;2023-12-04T03:26:19;101020.19;;;0.59;91.91
80712;BME280;70078;51.596;5.678;2023-12-04T03:28:44;100995.75;;;0.44;91.59
80712;BME280;70078;51.596;5.678;2023-12-04T03:31:10;100991.53;;;0.41;91.75
80712;BME280;70078;51.596;5.678;2023-12-04T03:33:35;101005.13;;;0.48;92.01
80712;BME280;70078;51.596;5.678;2023-12-04T03:36:00;100986.78;;;0.34;91.53
80712;BME280;70078;51.596;5.678;2023-12-04T03:38:26;100980.78;;;0.32;91.52
80712;BME280;70078;51.596;5.678;2023-12-04T03:40:51;100988.34;;;0.36;91.30
80712;BME280;70078;51.596;5.678;2023-12-04T03:43:17;100972.25;;;0.28;91.78
80712;BME280;70078;51.596;5.678;2023-12-04T03:45:42;100972.81;;;0.33;91.80
80712;BME280;70078;51.596;5.678;2023-12-04T03:48:07;100966.72;;;0.33;92.13
80712;BME280;70078;51.596;5.678;2023-12-04T03:50:33;100987.00;;;0.43;92.12
80712;BME280;70078;51.596;5.678;2023-12-04T03:52:58;100961.56;;;0.31;92.29
80712;BME280;70078;51.596;5.678;2023-12-04T03:55:23;100941.97;;;0.22;91.81
80712;BME280;70078;51.596;5.678;2023-12-04T03:57:48;100952.38;;;0.24;91.28
80712;BME280;70078;51.596;5.678;2023-12-04T04:00:14;100911.25;;;0.10;91.28
80712;BME280;70078;51.596;5.678;2023-12-04T04:02:41;100935.59;;;0.26;90.97
80712;BME280;70078;51.596;5.678;2023-12-04T04:05:06;100956.34;;;0.44;91.00
80712;BME280;70078;51.596;5.678;2023-12-04T04:07:32;100949.72;;;0.38;91.16
80712;BME280;70078;51.596;5.678;2023-12-04T04:09:57;100929.03;;;0.19;91.39
80712;BME280;70078;51.596;5.678;2023-12-04T04:12:22;100931.56;;;0.21;91.05
80712;BME280;70078;51.596;5.678;2023-12-04T04:14:47;100921.53;;;0.27;89.69
80712;BME280;70078;51.596;5.678;2023-12-04T04:17:13;100905.06;;;0.11;90.08
80712;BME280;70078;51.596;5.678;2023-12-04T04:19:38;100909.38;;;0.12;89.95
80712;BME280;70078;51.596;5.678;2023-12-04T04:22:03;100931.91;;;0.29;90.95
80712;BME280;70078;51.596;5.678;2023-12-04T04:24:29;100932.56;;;0.33;89.79
80712;BME280;70078;51.596;5.678;2023-12-04T04:26:54;100902.56;;;0.10;90.78
80712;BME280;70078;51.596;5.678;2023-12-04T04:29:19;100917.31;;;0.25;91.22
80712;BME280;70078;51.596;5.678;2023-12-04T04:31:45;100908.28;;;0.29;90.68
80712;BME280;70078;51.596;5.678;2023-12-04T04:34:10;100905.22;;;0.22;90.73
80712;BME280;70078;51.596;5.678;2023-12-04T04:36:35;100915.97;;;0.32;91.29
80712;BME280;70078;51.596;5.678;2023-12-04T04:39:01;100905.75;;;0.27;91.13
80712;BME280;70078;51.596;5.678;2023-12-04T04:41:26;100899.97;;;0.22;90.77
80712;BME280;70078;51.596;5.678;2023-12-04T04:43:52;100898.00;;;0.26;90.47
80712;BME280;70078;51.596;5.678;2023-12-04T04:46:18;100915.66;;;0.37;90.43
80712;BME280;70078;51.596;5.678;2023-12-04T04:48:43;100922.34;;;0.28;89.73
80712;BME280;70078;51.596;5.678;2023-12-04T04:51:08;100870.22;;;0.09;89.40
80712;BME280;70078;51.596;5.678;2023-12-04T04:53:34;100895.59;;;0.23;89.59
80712;BME280;70078;51.596;5.678;2023-12-04T04:55:59;100899.88;;;0.24;90.90
80712;BME280;70078;51.596;5.678;2023-12-04T04:58:25;100874.13;;;0.16;90.75
80712;BME280;70078;51.596;5.678;2023-12-04T05:00:50;100883.78;;;0.16;89.91
80712;BME280;70078;51.596;5.678;2023-12-04T05:03:15;100893.34;;;0.17;90.16
80712;BME280;70078;51.596;5.678;2023-12-04T05:05:41;100884.81;;;0.13;89.74
80712;BME280;70078;51.596;5.678;2023-12-04T05:08:06;100876.31;;;0.10;90.07
80712;BME280;70078;51.596;5.678;2023-12-04T05:10:32;100898.50;;;0.18;89.71
80712;BME280;70078;51.596;5.678;2023-12-04T05:12:57;100894.81;;;0.21;90.27
80712;BME280;70078;51.596;5.678;2023-12-04T05:15:22;100892.75;;;0.26;90.78
80712;BME280;70078;51.596;5.678;2023-12-04T05:17:48;100885.47;;;0.17;89.77
80712;BME280;70078;51.596;5.678;2023-12-04T05:20:13;100889.56;;;0.21;89.80
80712;BME280;70078;51.596;5.678;2023-12-04T05:22:39;100865.16;;;0.06;89.00
80712;BME280;70078;51.596;5.678;2023-12-04T05:25:05;100889.19;;;0.27;89.13
80712;BME280;70078;51.596;5.678;2023-12-04T05:27:31;100897.28;;;0.37;88.57
80712;BME280;70078;51.596;5.678;2023-12-04T05:29:56;100883.81;;;0.28;88.96
80712;BME280;70078;51.596;5.678;2023-12-04T05:32:21;100888.19;;;0.42;88.95
80712;BME280;70078;51.596;5.678;2023-12-04T05:34:46;100866.72;;;0.23;89.09
80712;BME280;70078;51.596;5.678;2023-12-04T05:37:12;100857.88;;;0.24;90.05
80712;BME280;70078;51.596;5.678;2023-12-04T05:39:37;100858.75;;;0.37;88.26
80712;BME280;70078;51.596;5.678;2023-12-04T05:42:02;100824.25;;;0.16;87.76
80712;BME280;70078;51.596;5.678;2023-12-04T05:44:28;100861.97;;;0.28;88.29
80712;BME280;70078;51.596;5.678;2023-12-04T05:46:53;100826.97;;;0.15;88.58
80712;BME280;70078;51.596;5.678;2023-12-04T05:49:18;100826.56;;;0.21;89.09
80712;BME280;70078;51.596;5.678;2023-12-04T05:51:44;100855.50;;;0.34;87.58
80712;BME280;70078;51.596;5.678;2023-12-04T05:54:09;100857.63;;;0.41;88.15
80712;BME280;70078;51.596;5.678;2023-12-04T05:56:34;100842.91;;;0.39;88.39
80712;BME280;70078;51.596;5.678;2023-12-04T05:59:00;100856.88;;;0.39;87.58
80712;BME280;70078;51.596;5.678;2023-12-04T06:01:25;100855.00;;;0.41;87.47
80712;BME280;70078;51.596;5.678;2023-12-04T06:03:50;100833.31;;;0.25;85.98
80712;BME280;70078;51.596;5.678;2023-12-04T06:06:16;100838.78;;;0.35;87.00
80712;BME280;70078;51.596;5.678;2023-12-04T06:08:41;100848.34;;;0.36;87.78
80712;BME280;70078;51.596;5.678;2023-12-04T06:11:06;100839.84;;;0.32;87.92
80712;BME280;70078;51.596;5.678;2023-12-04T06:13:32;100820.09;;;0.26;87.52
80712;BME280;70078;51.596;5.678;2023-12-04T06:15:57;100826.31;;;0.38;86.73
80712;BME280;70078;51.596;5.678;2023-12-04T06:18:22;100835.25;;;0.48;86.90
80712;BME280;70078;51.596;5.678;2023-12-04T06:20:47;100844.94;;;0.48;87.00
80712;BME280;70078;51.596;5.678;2023-12-04T06:23:14;100827.56;;;0.45;87.17
80712;BME280;70078;51.596;5.678;2023-12-04T06:25:40;100813.16;;;0.25;86.06
80712;BME280;70078;51.596;5.678;2023-12-04T06:28:06;100807.00;;;0.39;87.15
80712;BME280;70078;51.596;5.678;2023-12-04T06:30:31;100821.19;;;0.49;86.55
80712;BME280;70078;51.596;5.678;2023-12-04T06:32:57;100813.53;;;0.59;86.81
80712;BME280;70078;51.596;5.678;2023-12-04T06:35:23;100775.78;;;0.35;86.16
80712;BME280;70078;51.596;5.678;2023-12-04T06:37:49;100805.22;;;0.52;86.50
80712;BME280;70078;51.596;5.678;2023-12-04T06:40:15;100785.91;;;0.53;87.25
80712;BME280;70078;51.596;5.678;2023-12-04T06:42:42;100784.41;;;0.49;86.78
80712;BME280;70078;51.596;5.678;2023-12-04T06:45:08;100725.66;;;0.12;85.38
80712;BME280;70078;51.596;5.678;2023-12-04T06:47:34;100785.69;;;0.57;84.11
80712;BME280;70078;51.596;5.678;2023-12-04T06:49:59;100780.66;;;0.53;84.44
80712;BME280;70078;51.596;5.678;2023-12-04T06:52:25;100751.03;;;0.39;84.98
80712;BME280;70078;51.596;5.678;2023-12-04T06:54:50;100774.56;;;0.53;85.79
80712;BME280;70078;51.596;5.678;2023-12-04T06:57:16;100762.06;;;0.57;85.58
80712;BME280;70078;51.596;5.678;2023-12-04T06:59:42;100759.66;;;0.53;85.74
80712;BME280;70078;51.596;5.678;2023-12-04T07:02:08;100771.00;;;0.54;84.90
80712;BME280;70078;51.596;5.678;2023-12-04T07:04:34;100743.25;;;0.50;84.51
80712;BME280;70078;51.596;5.678;2023-12-04T07:06:59;100745.56;;;0.54;85.32
80712;BME280;70078;51.596;5.678;2023-12-04T07:09:33;100733.97;;;0.44;84.32
80712;BME280;70078;51.596;5.678;2023-12-04T07:11:59;100720.56;;;0.49;83.74
80712;BME280;70078;51.596;5.678;2023-12-04T07:14:25;100703.72;;;0.51;84.63
80712;BME280;70078;51.596;5.678;2023-12-04T07:16:50;100701.09;;;0.51;85.18
80712;BME280;70078;51.596;5.678;2023-12-04T07:19:15;100694.09;;;0.39;84.10
80712;BME280;70078;51.596;5.678;2023-12-04T07:21:41;100742.19;;;0.65;82.50
80712;BME280;70078;51.596;5.678;2023-12-04T07:24:07;100744.38;;;0.59;83.86
80712;BME280;70078;51.596;5.678;2023-12-04T07:26:34;100731.28;;;0.46;82.46
80712;BME280;70078;51.596;5.678;2023-12-04T07:28:59;100765.00;;;0.65;83.22
80712;BME280;70078;51.596;5.678;2023-12-04T07:31:24;100753.34;;;0.69;82.30
80712;BME280;70078;51.596;5.678;2023-12-04T07:33:53;100762.56;;;0.74;80.80
80712;BME280;70078;51.596;5.678;2023-12-04T07:36:18;100766.97;;;0.74;82.03
80712;BME280;70078;51.596;5.678;2023-12-04T07:38:43;100755.44;;;0.64;82.08
80712;BME280;70078;51.596;5.678;2023-12-04T07:41:08;100734.31;;;0.52;81.40
80712;BME280;70078;51.596;5.678;2023-12-04T07:43:34;100679.97;;;0.15;81.28
80712;BME280;70078;51.596;5.678;2023-12-04T07:45:59;100740.31;;;0.54;80.59
80712;BME280;70078;51.596;5.678;2023-12-04T07:48:25;100738.81;;;0.50;81.35
80712;BME280;70078;51.596;5.678;2023-12-04T07:50:51;100755.44;;;0.64;81.15
80712;BME280;70078;51.596;5.678;2023-12-04T07:53:17;100757.09;;;0.65;80.70
80712;BME280;70078;51.596;5.678;2023-12-04T07:55:42;100753.75;;;0.63;80.71
80712;BME280;70078;51.596;5.678;2023-12-04T07:58:08;100743.75;;;0.68;81.28
80712;BME280;70078;51.596;5.678;2023-12-04T08:00:34;100724.75;;;0.51;80.84
80712;BME280;70078;51.596;5.678;2023-12-04T08:03:00;100730.22;;;0.61;80.66
80712;BME280;70078;51.596;5.678;2023-12-04T08:05:25;100698.81;;;0.34;80.86
80712;BME280;70078;51.596;5.678;2023-12-04T08:07:52;100720.88;;;0.57;80.21
80712;BME280;70078;51.596;5.678;2023-12-04T08:10:17;100729.16;;;0.64;79.40
80712;BME280;70078;51.596;5.678;2023-12-04T08:12:44;100716.75;;;0.66;79.33
80712;BME280;70078;51.596;5.678;2023-12-04T08:15:10;100703.31;;;0.58;79.77
80712;BME280;70078;51.596;5.678;2023-12-04T08:17:35;100700.28;;;0.51;78.82
80712;BME280;70078;51.596;5.678;2023-12-04T08:20:01;100686.31;;;0.50;79.47
80712;BME280;70078;51.596;5.678;2023-12-04T08:22:26;100676.53;;;0.52;79.82
80712;BME280;70078;51.596;5.678;2023-12-04T08:24:51;100722.25;;;0.63;80.41
80712;BME280;70078;51.596;5.678;2023-12-04T08:27:17;100714.03;;;0.67;79.51
80712;BME280;70078;51.596;5.678;2023-12-04T08:29:42;100720.53;;;0.74;80.15
80712;BME280;70078;51.596;5.678;2023-12-04T08:32:07;100718.00;;;0.73;80.56
80712;BME280;70078;51.596;5.678;2023-12-04T08:34:32;100710.44;;;0.81;79.16
80712;BME280;70078;51.596;5.678;2023-12-04T08:36:58;100695.97;;;0.63;78.81
80712;BME280;70078;51.596;5.678;2023-12-04T08:39:23;100677.69;;;0.48;80.07
80712;BME280;70078;51.596;5.678;2023-12-04T08:41:48;100699.53;;;0.62;79.55
80712;BME280;70078;51.596;5.678;2023-12-04T08:44:14;100680.63;;;0.57;78.99
80712;BME280;70078;51.596;5.678;2023-12-04T08:46:39;100699.63;;;0.73;79.57
80712;BME280;70078;51.596;5.678;2023-12-04T08:49:05;100699.31;;;0.77;78.79
80712;BME280;70078;51.596;5.678;2023-12-04T08:51:30;100698.03;;;0.83;78.24
80712;BME280;70078;51.596;5.678;2023-12-04T08:53:56;100690.06;;;0.85;79.24
80712;BME280;70078;51.596;5.678;2023-12-04T08:56:21;100650.19;;;0.54;79.08
80712;BME280;70078;51.596;5.678;2023-12-04T08:58:46;100682.06;;;0.86;78.69
80712;BME280;70078;51.596;5.678;2023-12-04T09:01:11;100684.81;;;0.85;78.52
80712;BME280;70078;51.596;5.678;2023-12-04T09:03:37;100663.56;;;0.75;78.05
80712;BME280;70078;51.596;5.678;2023-12-04T09:06:02;100648.28;;;0.69;77.83
80712;BME280;70078;51.596;5.678;2023-12-04T09:08:28;100670.72;;;0.86;78.40
80712;BME280;70078;51.596;5.678;2023-12-04T09:10:53;100639.44;;;0.70;78.30
80712;BME280;70078;51.596;5.678;2023-12-04T09:13:18;100647.63;;;0.78;79.08
80712;BME280;70078;51.596;5.678;2023-12-04T09:15:43;100638.78;;;0.79;78.55
80712;BME280;70078;51.596;5.678;2023-12-04T09:18:09;100668.50;;;0.92;78.09
80712;BME280;70078;51.596;5.678;2023-12-04T09:20:34;100618.63;;;0.67;78.06
80712;BME280;70078;51.596;5.678;2023-12-04T09:22:59;100627.31;;;0.80;78.56
80712;BME280;70078;51.596;5.678;2023-12-04T09:25:25;100629.00;;;0.81;78.62
80712;BME280;70078;51.596;5.678;2023-12-04T09:27:51;100661.63;;;1.02;78.42
80712;BME280;70078;51.596;5.678;2023-12-04T09:30:19;100659.13;;;1.01;78.79
80712;BME280;70078;51.596;5.678;2023-12-04T09:32:44;100639.78;;;0.89;79.20
80712;BME280;70078;51.596;5.678;2023-12-04T09:35:10;100634.34;;;0.92;78.75
80712;BME280;70078;51.596;5.678;2023-12-04T09:37:35;100633.50;;;0.92;78.94
80712;BME280;70078;51.596;5.678;2023-12-04T09:40:01;100660.25;;;1.09;78.65
80712;BME280;70078;51.596;5.678;2023-12-04T09:42:26;100630.13;;;0.90;78.83
80712;BME280;70078;51.596;5.678;2023-12-04T09:44:52;100625.50;;;0.93;78.71
80712;BME280;70078;51.596;5.678;2023-12-04T09:47:20;100648.78;;;1.10;79.58
80712;BME280;70078;51.596;5.678;2023-12-04T09:49:47;100621.47;;;1.00;79.65
80712;BME280;70078;51.596;5.678;2023-12-04T09:52:13;100643.81;;;1.19;78.68
80712;BME280;70078;51.596;5.678;2023-12-04T09:54:40;100634.47;;;1.15;78.37
80712;BME280;70078;51.596;5.678;2023-12-04T09:57:05;100612.94;;;1.09;78.34
80712;BME280;70078;51.596;5.678;2023-12-04T09:59:31;100607.22;;;1.16;77.99
80712;BME280;70078;51.596;5.678;2023-12-04T10:01:57;100648.34;;;1.41;77.31
80712;BME280;70078;51.596;5.678;2023-12-04T10:04:22;100639.09;;;1.35;78.18
80712;BME280;70078;51.596;5.678;2023-12-04T10:06:50;100612.03;;;1.22;78.60
80712;BME280;70078;51.596;5.678;2023-12-04T10:09:17;100620.28;;;1.28;78.70
80712;BME280;70078;51.596;5.678;2023-12-04T10:11:45;100640.31;;;1.42;78.93
80712;BME280;70078;51.596;5.678;2023-12-04T10:14:19;100634.28;;;1.53;77.24
80712;BME280;70078;51.596;5.678;2023-12-04T10:16:45;100607.22;;;1.39;77.40
80712;BME280;70078;51.596;5.678;2023-12-04T10:19:21;100622.94;;;1.52;77.95
80712;BME280;70078;51.596;5.678;2023-12-04T10:21:58;100616.09;;;1.50;78.23
80712;BME280;70078;51.596;5.678;2023-12-04T10:24:32;100599.72;;;1.46;78.06
80712;BME280;70078;51.596;5.678;2023-12-04T10:26:59;100615.31;;;1.60;77.90
80712;BME280;70078;51.596;5.678;2023-12-04T10:29:27;100593.94;;;1.41;78.45
80712;BME280;70078;51.596;5.678;2023-12-04T10:31:53;100592.03;;;1.43;78.40
80712;BME280;70078;51.596;5.678;2023-12-04T10:34:21;100609.53;;;1.55;77.61
80712;BME280;70078;51.596;5.678;2023-12-04T10:36:46;100600.38;;;1.61;77.91
80712;BME280;70078;51.596;5.678;2023-12-04T10:39:12;100578.41;;;1.38;77.57
80712;BME280;70078;51.596;5.678;2023-12-04T10:41:42;100600.75;;;1.67;78.03
80712;BME280;70078;51.596;5.678;2023-12-04T10:44:08;100559.81;;;1.52;78.04
80712;BME280;70078;51.596;5.678;2023-12-04T10:46:35;100555.97;;;1.56;76.77
80712;BME280;70078;51.596;5.678;2023-12-04T10:49:02;100562.44;;;1.63;77.36
80712;BME280;70078;51.596;5.678;2023-12-04T10:51:29;100555.28;;;1.65;77.93
80712;BME280;70078;51.596;5.678;2023-12-04T10:53:55;100551.97;;;1.75;76.96
80712;BME280;70078;51.596;5.678;2023-12-04T10:56:30;100559.03;;;1.85;77.53
80712;BME280;70078;51.596;5.678;2023-12-04T10:58:57;100549.94;;;1.78;76.89
80712;BME280;70078;51.596;5.678;2023-12-04T11:01:24;100552.44;;;1.80;77.38
80712;BME280;70078;51.596;5.678;2023-12-04T11:03:52;100558.19;;;1.85;77.56
80712;BME280;70078;51.596;5.678;2023-12-04T11:06:20;100545.53;;;1.90;76.98
80712;BME280;70078;51.596;5.678;2023-12-04T11:08:48;100521.47;;;1.83;76.71
80712;BME280;70078;51.596;5.678;2023-12-04T11:11:15;100514.16;;;1.76;77.07
80712;BME280;70078;51.596;5.678;2023-12-04T11:13:46;100528.31;;;1.97;76.72
80712;BME280;70078;51.596;5.678;2023-12-04T11:19:00;100520.66;;;2.05;75.66
80712;BME280;70078;51.596;5.678;2023-12-04T11:21:29;100492.41;;;1.85;76.88
80712;BME280;70078;51.596;5.678;2023-12-04T11:23:56;100503.88;;;1.95;76.95
80712;BME280;70078;51.596;5.678;2023-12-04T11:26:23;100505.91;;;2.03;76.56
80712;BME280;70078;51.596;5.678;2023-12-04T11:28:51;100508.09;;;2.20;76.03
80712;BME280;70078;51.596;5.678;2023-12-04T11:31:16;100502.19;;;2.16;75.76
80712;BME280;70078;51.596;5.678;2023-12-04T11:33:42;100507.94;;;2.21;76.93
80712;BME280;70078;51.596;5.678;2023-12-04T11:36:09;100484.38;;;2.09;76.66
80712;BME280;70078;51.596;5.678;2023-12-04T11:38:38;100510.06;;;2.39;75.55
80712;BME280;70078;51.596;5.678;2023-12-04T11:41:19;100496.56;;;2.32;75.73
80712;BME280;70078;51.596;5.678;2023-12-04T11:43:46;100493.09;;;2.43;76.12
80712;BME280;70078;51.596;5.678;2023-12-04T11:46:13;100498.09;;;2.46;76.17
80712;BME280;70078;51.596;5.678;2023-12-04T11:48:39;100477.28;;;2.32;75.41
80712;BME280;70078;51.596;5.678;2023-12-04T11:51:05;100489.50;;;2.44;75.76
80712;BME280;70078;51.596;5.678;2023-12-04T11:53:32;100461.47;;;2.32;76.33
80712;BME280;70078;51.596;5.678;2023-12-04T11:55:58;100454.59;;;2.19;76.65
80712;BME280;70078;51.596;5.678;2023-12-04T11:58:23;100471.28;;;2.41;76.03
80712;BME280;70078;51.596;5.678;2023-12-04T12:00:48;100447.13;;;2.25;76.34
80712;BME280;70078;51.596;5.678;2023-12-04T12:03:14;100463.63;;;2.38;76.73
80712;BME280;70078;51.596;5.678;2023-12-04T12:05:40;100463.16;;;2.44;75.93
80712;BME280;70078;51.596;5.678;2023-12-04T12:08:07;100439.38;;;2.23;76.07
80712;BME280;70078;51.596;5.678;2023-12-04T12:10:34;100425.63;;;2.19;76.31
80712;BME280;70078;51.596;5.678;2023-12-04T12:12:59;100411.34;;;2.22;76.13
80712;BME280;70078;51.596;5.678;2023-12-04T12:15:25;100416.53;;;2.12;76.76
80712;BME280;70078;51.596;5.678;2023-12-04T12:17:51;100430.28;;;2.27;76.59
80712;BME280;70078;51.596;5.678;2023-12-04T12:20:17;100437.28;;;2.38;75.70
80712;BME280;70078;51.596;5.678;2023-12-04T12:22:43;100425.56;;;2.31;76.05
80712;BME280;70078;51.596;5.678;2023-12-04T12:25:11;100383.97;;;2.02;76.10
80712;BME280;70078;51.596;5.678;2023-12-04T12:27:38;100404.78;;;2.16;76.78
80712;BME280;70078;51.596;5.678;2023-12-04T12:30:04;100409.78;;;2.31;76.67
80712;BME280;70078;51.596;5.678;2023-12-04T12:32:33;100397.22;;;2.23;76.98
80712;BME280;70078;51.596;5.678;2023-12-04T12:34:59;100394.25;;;2.28;77.22
80712;BME280;70078;51.596;5.678;2023-12-04T12:37:24;100390.63;;;2.29;77.66
80712;BME280;70078;51.596;5.678;2023-12-04T12:39:50;100355.47;;;2.18;77.86
80712;BME280;70078;51.596;5.678;2023-12-04T12:42:23;100376.38;;;2.31;76.58
80712;BME280;70078;51.596;5.678;2023-12-04T12:44:49;100352.81;;;2.18;76.52
80712;BME280;70078;51.596;5.678;2023-12-04T12:47:15;100341.22;;;2.21;76.71
80712;BME280;70078;51.596;5.678;2023-12-04T12:49:40;100354.81;;;2.37;77.13
80712;BME280;70078;51.596;5.678;2023-12-04T12:52:06;100368.47;;;2.31;77.31
80712;BME280;70078;51.596;5.678;2023-12-04T12:54:36;100356.06;;;2.22;77.17
80712;BME280;70078;51.596;5.678;2023-12-04T12:57:02;100366.81;;;2.30;77.61